createdAt,value
2022-07-27T00:00:05.494Z,100319.69
2022-07-27T00:05:10.708Z,100309.06
2022-07-27T00:10:09.340Z,100272.50
2022-07-27T00:15:08.409Z,100286.22
2022-07-27T00:20:09.635Z,100287.34
2022-07-27T00:25:10.858Z,100289.66
2022-07-27T00:30:09.762Z,100296.75
2022-07-27T00:35:20.139Z,100302.25
2022-07-27T00:40:20.257Z,100300.84
2022-07-27T00:45:19.179Z,100331.88
2022-07-27T00:50:17.640Z,100297.69
2022-07-27T00:55:16.335Z,100287.47
2022-07-27T01:00:18.168Z,100325.22
2022-07-27T01:05:20.609Z,100295.09
2022-07-27T01:10:19.564Z,100303.13
2022-07-27T01:15:21.364Z,100336.19
2022-07-27T01:20:24.000Z,100287.34
2022-07-27T01:25:23.480Z,100302.25
2022-07-27T01:30:30.833Z,100311.94
2022-07-27T01:35:32.387Z,100301.16
2022-07-27T01:40:31.714Z,100294.19
2022-07-27T01:45:33.210Z,100330.38
2022-07-27T01:50:32.582Z,100299.63
2022-07-27T01:55:38.698Z,100330.00
2022-07-27T02:00:38.803Z,100332.06
2022-07-27T02:05:38.485Z,100288.97
2022-07-27T02:10:37.075Z,100303.59
2022-07-27T02:15:43.253Z,100316.63
2022-07-27T02:20:44.428Z,100317.16
2022-07-27T02:25:43.740Z,100299.34
2022-07-27T02:30:42.302Z,100307.09
2022-07-27T02:35:43.907Z,100297.28
2022-07-27T02:40:45.527Z,100309.78
2022-07-27T02:45:46.484Z,100313.16
2022-07-27T02:50:45.369Z,100340.09
2022-07-27T02:55:46.329Z,100317.56
2022-07-27T03:00:44.190Z,100313.38
2022-07-27T03:05:43.420Z,100349.63
2022-07-27T03:10:42.074Z,100322.69
2022-07-27T03:15:47.560Z,100334.66
2022-07-27T03:20:49.161Z,100344.25
2022-07-27T03:25:47.302Z,100339.50
2022-07-27T03:30:46.697Z,100352.59
2022-07-27T03:35:45.231Z,100317.66
2022-07-27T03:40:45.429Z,100315.78
2022-07-27T03:45:47.252Z,100335.47
2022-07-27T03:50:49.268Z,100349.06
2022-07-27T03:55:48.841Z,100364.69
2022-07-27T04:00:48.993Z,100354.31
2022-07-27T04:05:50.077Z,100388.38
2022-07-27T04:10:48.282Z,100365.28
2022-07-27T04:15:46.419Z,100370.88
2022-07-27T04:20:45.504Z,100385.78
2022-07-27T04:25:44.207Z,100370.13
2022-07-27T04:31:04.366Z,100412.00
2022-07-27T04:36:03.400Z,100372.66
2022-07-27T04:41:05.706Z,100392.78
2022-07-27T04:46:05.661Z,100394.00
2022-07-27T04:51:07.601Z,100378.25
2022-07-27T04:56:07.134Z,100388.19
2022-07-27T05:01:07.302Z,100399.63
2022-07-27T05:06:06.893Z,100424.03
2022-07-27T05:11:05.367Z,100421.00
2022-07-27T05:16:07.384Z,100406.25
2022-07-27T05:21:07.789Z,100403.03
2022-07-27T05:26:09.269Z,100439.69
2022-07-27T05:31:08.431Z,100423.91
2022-07-27T05:36:07.826Z,100430.00
2022-07-27T05:41:07.650Z,100428.63
2022-07-27T05:46:05.908Z,100414.53
2022-07-27T05:51:07.289Z,100448.66
2022-07-27T05:56:08.453Z,100431.22
2022-07-27T06:01:06.106Z,100453.44
2022-07-27T06:06:24.418Z,100426.19
2022-07-27T06:11:22.925Z,100440.78
2022-07-27T06:16:24.333Z,100444.31
2022-07-27T06:21:28.208Z,100445.31
2022-07-27T06:26:26.669Z,100461.63
2022-07-27T06:31:26.849Z,100421.25
2022-07-27T06:36:26.639Z,100434.22
2022-07-27T06:41:24.783Z,100443.41
2022-07-27T06:46:23.206Z,100459.94
2022-07-27T06:51:24.284Z,100463.47
2022-07-27T06:56:23.354Z,100454.47
2022-07-27T07:01:34.683Z,100468.06
2022-07-27T07:06:36.792Z,100430.88
2022-07-27T07:11:37.406Z,100459.53
2022-07-27T07:16:38.925Z,100442.84
2022-07-27T07:21:40.748Z,100456.97
2022-07-27T07:26:41.263Z,100453.78
2022-07-27T07:31:40.935Z,100441.66
2022-07-27T07:36:43.320Z,100463.97
2022-07-27T07:41:42.089Z,100457.94
2022-07-27T07:46:47.074Z,100467.06
2022-07-27T07:51:46.656Z,100449.88
2022-07-27T07:56:45.441Z,100467.03
2022-07-27T08:01:46.663Z,100458.22
2022-07-27T08:06:46.080Z,100478.41
2022-07-27T08:11:45.783Z,100465.16
2022-07-27T08:16:45.557Z,100442.00
2022-07-27T08:21:46.632Z,100453.84
2022-07-27T08:26:45.694Z,100467.97
2022-07-27T08:31:51.971Z,100456.88
2022-07-27T08:36:53.143Z,100461.72
2022-07-27T08:41:53.890Z,100475.91
2022-07-27T08:46:52.415Z,100477.66
2022-07-27T08:51:52.905Z,100459.72
2022-07-27T08:56:53.813Z,100466.53
2022-07-27T09:01:55.528Z,100438.94
2022-07-27T09:06:57.029Z,100467.72
2022-07-27T09:12:11.470Z,100452.53
2022-07-27T09:17:47.948Z,100446.88
2022-07-27T09:23:09.840Z,100455.06
2022-07-27T09:28:08.740Z,100454.13
2022-07-27T09:33:09.001Z,100451.16
2022-07-27T09:38:22.531Z,100472.06
2022-07-27T09:44:27.575Z,100460.41
2022-07-27T09:48:46.261Z,100442.84
2022-07-27T09:53:44.680Z,100440.28
2022-07-27T09:58:51.552Z,100419.88
2022-07-27T10:03:57.124Z,100449.75
2022-07-27T10:08:58.614Z,100419.97
2022-07-27T10:13:59.539Z,100440.81
2022-07-27T10:19:08.581Z,100438.03
2022-07-27T10:24:12.617Z,100416.59
2022-07-27T10:29:17.262Z,100442.53
2022-07-27T10:34:38.218Z,100418.47
2022-07-27T10:39:43.290Z,100447.53
2022-07-27T10:44:57.019Z,100418.25
2022-07-27T10:50:22.530Z,100428.66
2022-07-27T10:55:49.394Z,100430.28
2022-07-27T11:00:56.735Z,100429.75
2022-07-27T11:06:04.681Z,100400.53
2022-07-27T11:11:21.157Z,100418.19
2022-07-27T11:16:24.518Z,100392.38
2022-07-27T11:21:33.181Z,100410.63
2022-07-27T11:26:37.346Z,100396.16
2022-07-27T11:31:58.147Z,100399.31
2022-07-27T11:37:03.232Z,100380.66
2022-07-27T11:42:08.420Z,100378.81
2022-07-27T11:47:17.730Z,100375.28
2022-07-27T11:52:18.899Z,100375.53
2022-07-27T11:57:24.138Z,100373.91
2022-07-27T12:02:27.445Z,100381.59
2022-07-27T12:07:35.848Z,100351.69
2022-07-27T12:12:38.451Z,100357.84
2022-07-27T12:17:38.813Z,100364.25
2022-07-27T12:22:42.075Z,100362.88
2022-07-27T12:27:41.506Z,100352.16
2022-07-27T12:32:44.619Z,100338.25
2022-07-27T12:37:43.822Z,100345.00
2022-07-27T12:42:42.318Z,100342.50
2022-07-27T12:47:44.196Z,100321.81
2022-07-27T12:52:51.603Z,100341.91
2022-07-27T12:57:56.534Z,100322.81
2022-07-27T13:03:05.080Z,100295.13
2022-07-27T13:08:07.775Z,100296.25
2022-07-27T13:13:08.436Z,100310.91
2022-07-27T13:18:10.528Z,100298.25
2022-07-27T13:23:13.641Z,100299.78
2022-07-27T13:28:12.944Z,100299.88
2022-07-27T13:33:14.495Z,100287.66
2022-07-27T13:38:17.248Z,100291.25
2022-07-27T13:43:19.709Z,100286.78
2022-07-27T13:48:18.272Z,100277.16
2022-07-27T13:53:20.511Z,100288.47
2022-07-27T13:58:20.059Z,100273.03
2022-07-27T14:03:24.256Z,100265.47
2022-07-27T14:08:26.041Z,100259.50
2022-07-27T14:13:26.601Z,100254.09
2022-07-27T14:18:27.699Z,100263.41
2022-07-27T14:23:27.283Z,100266.06
2022-07-27T14:28:27.426Z,100250.97
2022-07-27T14:33:33.204Z,100250.72
2022-07-27T14:38:42.791Z,100228.50
2022-07-27T14:43:41.574Z,100234.84
2022-07-27T14:49:05.345Z,100237.56
2022-07-27T14:54:04.631Z,100239.88
2022-07-27T14:59:06.380Z,100241.56
2022-07-27T15:04:06.135Z,100239.22
2022-07-27T15:09:07.792Z,100231.38
2022-07-27T15:14:07.595Z,100222.84
2022-07-27T15:19:08.357Z,100247.84
2022-07-27T15:24:08.133Z,100225.16
2022-07-27T15:29:14.852Z,100238.06
2022-07-27T15:34:16.148Z,100233.72
2022-07-27T15:39:16.755Z,100217.28
2022-07-27T15:44:23.441Z,100223.75
2022-07-27T15:49:33.380Z,100226.53
2022-07-27T15:54:42.144Z,100226.56
2022-07-27T15:59:47.662Z,100243.88
2022-07-27T16:04:48.561Z,100242.22
2022-07-27T16:09:53.661Z,100225.84
2022-07-27T16:14:52.378Z,100244.28
2022-07-27T16:19:54.964Z,100239.25
2022-07-27T16:25:04.357Z,100234.81
2022-07-27T16:30:04.892Z,100259.44
2022-07-27T16:35:10.185Z,100248.75
2022-07-27T16:40:14.207Z,100251.53
2022-07-27T16:45:15.388Z,100246.19
2022-07-27T16:50:14.328Z,100264.53
2022-07-27T16:55:17.026Z,100261.00
2022-07-27T17:00:16.222Z,100255.44
2022-07-27T17:05:22.221Z,100249.41
2022-07-27T17:10:26.823Z,100258.47
2022-07-27T17:15:25.979Z,100245.41
2022-07-27T17:20:36.261Z,100257.03
2022-07-27T17:25:43.235Z,100251.13
2022-07-27T17:31:01.887Z,100254.16
2022-07-27T17:36:12.298Z,100262.72
2022-07-27T17:41:13.845Z,100252.97
2022-07-27T17:46:15.236Z,100246.59
2022-07-27T17:51:16.926Z,100266.22
2022-07-27T17:56:18.512Z,100257.91
2022-07-27T18:01:17.311Z,100265.66
2022-07-27T18:06:15.918Z,100284.69
2022-07-27T18:11:15.356Z,100289.03
2022-07-27T18:16:14.169Z,100319.91
2022-07-27T18:21:16.599Z,100307.00
2022-07-27T18:26:46.254Z,100314.78
2022-07-27T18:31:51.630Z,100344.72
2022-07-27T18:37:11.738Z,100348.50
2022-07-27T18:42:10.052Z,100368.84
2022-07-27T18:47:19.518Z,100391.31
2022-07-27T18:52:19.215Z,100385.81
2022-07-27T18:57:20.429Z,100390.88
2022-07-27T19:02:28.046Z,100407.25
2022-07-27T19:07:31.076Z,100425.00
2022-07-27T19:12:34.060Z,100430.94
2022-07-27T19:17:36.318Z,100423.63
2022-07-27T19:22:34.636Z,100436.47
2022-07-27T19:27:38.312Z,100430.91
2022-07-27T19:33:09.100Z,100411.94
2022-07-27T19:38:23.747Z,100446.59
2022-07-27T19:43:32.498Z,100413.19
2022-07-27T19:48:36.642Z,100424.13
2022-07-27T19:53:40.644Z,100448.16
2022-07-27T19:58:45.484Z,100442.06
2022-07-27T20:03:54.225Z,100417.84
2022-07-27T20:09:44.684Z,100426.19
2022-07-27T20:14:48.914Z,100417.69
2022-07-27T20:20:55.099Z,100455.56
2022-07-27T20:25:54.764Z,100433.88
2022-07-27T20:30:56.158Z,100460.56
2022-07-27T20:36:00.505Z,100453.59
2022-07-27T20:40:59.689Z,100456.66
2022-07-27T20:46:08.219Z,100484.22
2022-07-27T20:51:14.622Z,100469.38
2022-07-27T20:56:12.317Z,100477.34
2022-07-27T21:01:10.638Z,100491.09
2022-07-27T21:06:10.938Z,100483.97
2022-07-27T21:11:10.993Z,100460.66
2022-07-27T21:16:12.115Z,100511.94
2022-07-27T21:21:12.263Z,100502.34
2022-07-27T21:26:12.337Z,100487.50
2022-07-27T21:31:13.538Z,100490.00
2022-07-27T21:36:12.933Z,100505.91
2022-07-27T21:41:14.811Z,100510.53
2022-07-27T21:46:15.756Z,100534.94
2022-07-27T21:51:18.653Z,100504.03
2022-07-27T21:56:16.639Z,100526.16
2022-07-27T22:01:18.843Z,100551.72
2022-07-27T22:06:23.188Z,100542.56
2022-07-27T22:11:23.012Z,100519.69
2022-07-27T22:16:21.433Z,100528.16
2022-07-27T22:21:32.901Z,100567.72
2022-07-27T22:26:34.721Z,100579.75
2022-07-27T22:31:33.473Z,100546.31
2022-07-27T22:36:35.542Z,100564.88
2022-07-27T22:41:36.220Z,100560.50
2022-07-27T22:46:35.026Z,100568.25
2022-07-27T22:51:49.800Z,100544.47
2022-07-27T22:56:54.559Z,100554.31
2022-07-27T23:01:52.530Z,100597.41
2022-07-27T23:06:51.152Z,100589.22
2022-07-27T23:11:52.702Z,100552.69
2022-07-27T23:16:51.379Z,100578.06
2022-07-27T23:21:53.070Z,100568.78
2022-07-27T23:26:55.407Z,100585.25
2022-07-27T23:31:53.494Z,100559.75
2022-07-27T23:36:54.583Z,100592.81
2022-07-27T23:41:55.719Z,100590.66
2022-07-27T23:46:55.250Z,100564.53
2022-07-27T23:51:56.775Z,100562.91
2022-07-27T23:56:57.730Z,100589.34
